KIAD/IAD METAR and TAF weather

Enter ICAO airport designator
Station Type Date Time Source
KIAD METAR 2020/06/03 22:52 UTC NOAA

KIAD 032252Z 28006KT 10SM FEW065 SCT120 SCT200 32/16 A2971 RMK AO2 SLP057 ACSL W T03220161 $


Station Type Date Time Source
KIAD Decoded METAR 2020/06/03 22:52 UTC NOAA

DULLES INTERNATIONAL AIRPORT, VA, United States (KIAD) 38-56N 077-27W 93M
Jun 03, 2020 - 06:52 PM EDT / 2020.06.03 2252 UTC
Wind: from the W (280 degrees) at 7 MPH (6 KT):0
Visibility: 10 mile(s):0
Sky conditions: partly cloudy
Temperature: 90.0 F (32.2 C)
Dew Point: 61.0 F (16.1 C)
Relative Humidity: 38%
Pressure (altimeter): 29.71 in. Hg (1006 hPa)
ob: KIAD 032252Z 28006KT 10SM FEW065 SCT120 SCT200 32/16 A2971 RMK AO2 SLP057 ACSL W T03220161
cycle: 23

Station Type Date Time Source
KIAD TAF 2020/06/03 21:59 UTC NOAA

TAF
AMD KIAD 032059Z 0321/0424 26012G22KT P6SM SCT060
FM040000 28009KT P6SM BKN200
FM041400 26004KT P6SM SCT200

Example: see airport list